createdAt,value
2016-12-18T00:00:33.239Z,1030.56
2016-12-18T00:01:36.688Z,1030.5
2016-12-18T00:02:40.135Z,1030.46
2016-12-18T00:03:43.601Z,1030.47
2016-12-18T00:04:47.049Z,1030.5
2016-12-18T00:05:50.500Z,1030.45
2016-12-18T00:06:53.964Z,1030.42
2016-12-18T00:07:57.414Z,1030.46
2016-12-18T00:09:00.859Z,1030.47
2016-12-18T00:10:04.326Z,1030.46
2016-12-18T00:11:07.777Z,1030.43
2016-12-18T00:12:11.221Z,1030.39
2016-12-18T00:13:14.687Z,1030.37
2016-12-18T00:14:18.138Z,1030.41
2016-12-18T00:15:21.583Z,1030.43
2016-12-18T00:16:25.047Z,1030.49
2016-12-18T00:17:28.497Z,1030.47
2016-12-18T00:18:31.945Z,1030.5
2016-12-18T00:19:35.411Z,1030.5
2016-12-18T00:20:38.861Z,1030.49
2016-12-18T00:21:42.307Z,1030.47
2016-12-18T00:22:45.772Z,1030.48
2016-12-18T00:23:49.222Z,1030.51
2016-12-18T00:24:52.667Z,1030.5
2016-12-18T00:25:56.132Z,1030.5
2016-12-18T00:26:59.583Z,1030.59
2016-12-18T00:28:03.030Z,1030.59
2016-12-18T00:29:06.495Z,1030.59
2016-12-18T00:30:09.942Z,1030.58
2016-12-18T00:31:13.390Z,1030.62
2016-12-18T00:32:16.858Z,1030.64
2016-12-18T00:33:20.308Z,1030.65
2016-12-18T00:34:23.752Z,1030.71
2016-12-18T00:35:27.218Z,1030.69
2016-12-18T00:36:30.669Z,1030.71
2016-12-18T00:37:34.113Z,1030.69
2016-12-18T00:38:37.580Z,1030.65
2016-12-18T00:39:41.029Z,1030.65
2016-12-18T00:40:44.476Z,1030.68
2016-12-18T00:41:47.942Z,1030.68
2016-12-18T00:42:51.392Z,1030.69
2016-12-18T00:43:54.839Z,1030.69
2016-12-18T00:44:58.304Z,1030.74
2016-12-18T00:46:01.752Z,1030.71
2016-12-18T00:47:05.198Z,1030.8
2016-12-18T00:48:08.665Z,1030.81
2016-12-18T00:49:12.115Z,1030.81
2016-12-18T00:50:15.561Z,1030.79
2016-12-18T00:51:19.027Z,1030.75
2016-12-18T00:52:22.477Z,1030.67
2016-12-18T00:53:25.925Z,1030.63
2016-12-18T00:54:29.389Z,1030.62
2016-12-18T00:55:32.836Z,1030.6
2016-12-18T00:56:36.284Z,1030.64
2016-12-18T00:57:39.753Z,1030.63
2016-12-18T00:58:43.199Z,1030.62
2016-12-18T00:59:46.644Z,1030.61
2016-12-18T01:02:18.348Z,1030.72
2016-12-18T01:03:21.789Z,1030.76
2016-12-18T01:04:25.255Z,1030.73
2016-12-18T01:05:28.701Z,1030.74
2016-12-18T01:06:32.149Z,1030.74
2016-12-18T01:07:35.616Z,1030.73
2016-12-18T01:08:39.063Z,1030.71
2016-12-18T01:09:42.511Z,1030.72
2016-12-18T01:10:45.978Z,1030.67
2016-12-18T01:11:49.406Z,1030.62
2016-12-18T01:12:52.857Z,1030.61
2016-12-18T01:13:56.303Z,1030.6
2016-12-18T01:14:59.744Z,1030.57
2016-12-18T01:16:03.198Z,1030.59
2016-12-18T01:17:06.641Z,1030.63
2016-12-18T01:18:10.093Z,1030.6
2016-12-18T01:19:13.540Z,1030.61
2016-12-18T01:20:16.985Z,1030.66
2016-12-18T01:21:20.449Z,1030.61
2016-12-18T01:22:23.896Z,1030.61
2016-12-18T01:23:27.344Z,1030.63
2016-12-18T01:24:30.811Z,1030.6
2016-12-18T01:25:34.259Z,1030.6
2016-12-18T01:26:37.704Z,1030.6
2016-12-18T01:27:41.172Z,1030.62
2016-12-18T01:28:44.621Z,1030.59
2016-12-18T01:29:48.067Z,1030.56
2016-12-18T01:30:51.534Z,1030.56
2016-12-18T01:31:54.982Z,1030.56
2016-12-18T01:32:58.429Z,1030.57
2016-12-18T01:34:01.897Z,1030.55
2016-12-18T01:35:05.345Z,1030.52
2016-12-18T01:36:08.790Z,1030.49
2016-12-18T01:37:12.258Z,1030.5
2016-12-18T01:38:15.704Z,1030.52
2016-12-18T01:39:19.151Z,1030.52
2016-12-18T01:40:22.605Z,1030.52
2016-12-18T01:41:26.047Z,1030.48
2016-12-18T01:42:29.499Z,1030.47
2016-12-18T01:43:32.947Z,1030.46
2016-12-18T01:44:36.387Z,1030.44
2016-12-18T01:45:39.855Z,1030.39
2016-12-18T01:46:43.303Z,1030.41
2016-12-18T01:47:46.749Z,1030.43
2016-12-18T01:48:50.217Z,1030.41
2016-12-18T01:49:53.663Z,1030.42
2016-12-18T01:50:57.109Z,1030.42
2016-12-18T01:52:00.578Z,1030.42
2016-12-18T01:53:04.024Z,1030.46
2016-12-18T01:54:07.473Z,1030.47
2016-12-18T01:55:10.941Z,1030.5
2016-12-18T01:56:14.389Z,1030.51
2016-12-18T01:57:17.834Z,1030.5
2016-12-18T01:58:21.301Z,1030.47
2016-12-18T01:59:24.750Z,1030.47
2016-12-18T02:00:28.195Z,1030.43
2016-12-18T02:01:31.662Z,1030.43
2016-12-18T02:02:35.110Z,1030.4
2016-12-18T02:03:38.556Z,1030.38
2016-12-18T02:04:42.009Z,1030.36
2016-12-18T02:05:45.453Z,1030.34
2016-12-18T02:06:48.905Z,1030.32
2016-12-18T02:07:52.353Z,1030.31
2016-12-18T02:08:55.798Z,1030.34
2016-12-18T02:09:59.261Z,1030.31
2016-12-18T02:11:02.707Z,1030.32
2016-12-18T02:12:06.157Z,1030.29
2016-12-18T02:13:09.622Z,1030.26
2016-12-18T02:14:13.069Z,1030.24
2016-12-18T02:15:16.516Z,1030.23
2016-12-18T02:16:19.982Z,1030.22
2016-12-18T02:17:23.432Z,1030.2
2016-12-18T02:18:26.878Z,1030.18
2016-12-18T02:19:30.345Z,1030.15
2016-12-18T02:20:33.792Z,1030.2
2016-12-18T02:21:37.240Z,1030.19
2016-12-18T02:22:40.707Z,1030.19
2016-12-18T02:23:44.156Z,1030.16
2016-12-18T02:24:47.601Z,1030.2
2016-12-18T02:25:51.072Z,1030.15
2016-12-18T02:26:54.516Z,1030.14
2016-12-18T02:27:57.963Z,1030.08
2016-12-18T02:29:01.430Z,1030.05
2016-12-18T02:30:04.877Z,1030
2016-12-18T02:31:08.324Z,1030.02
2016-12-18T02:32:11.792Z,1029.98
2016-12-18T02:33:15.241Z,1029.98
2016-12-18T02:34:18.684Z,1029.95
2016-12-18T02:35:22.144Z,1029.98
2016-12-18T02:36:25.581Z,1030
2016-12-18T02:37:29.034Z,1029.96
2016-12-18T02:38:32.482Z,1029.93
2016-12-18T02:39:35.927Z,1029.88
2016-12-18T02:40:39.389Z,1029.88
2016-12-18T02:41:42.836Z,1029.85
2016-12-18T02:42:46.288Z,1029.84
2016-12-18T02:43:49.750Z,1029.85
2016-12-18T02:44:53.199Z,1029.89
2016-12-18T02:45:56.647Z,1029.92
2016-12-18T02:47:00.111Z,1029.92
2016-12-18T02:48:03.561Z,1029.91
2016-12-18T02:49:07.006Z,1029.89
2016-12-18T02:50:10.472Z,1029.88
2016-12-18T02:51:13.922Z,1029.86
2016-12-18T02:52:17.368Z,1029.88
2016-12-18T02:53:20.821Z,1029.9
2016-12-18T02:54:24.263Z,1029.88
2016-12-18T02:55:27.716Z,1029.81
2016-12-18T02:56:31.162Z,1029.81
2016-12-18T02:57:34.605Z,1029.79
2016-12-18T02:58:38.070Z,1029.82
2016-12-18T02:59:41.517Z,1029.81
2016-12-18T03:00:44.965Z,1029.84
2016-12-18T03:01:48.432Z,1029.83
2016-12-18T03:02:51.879Z,1029.81
2016-12-18T03:03:55.330Z,1029.79
2016-12-18T03:04:58.794Z,1029.79
2016-12-18T03:06:02.241Z,1029.78
2016-12-18T03:07:05.688Z,1029.7
2016-12-18T03:08:09.156Z,1029.68
2016-12-18T03:09:12.604Z,1029.65
2016-12-18T03:10:16.053Z,1029.7
2016-12-18T03:11:19.518Z,1029.75
2016-12-18T03:12:22.965Z,1029.75
2016-12-18T03:13:26.410Z,1029.73
2016-12-18T03:14:29.865Z,1029.74
2016-12-18T03:15:33.307Z,1029.76
2016-12-18T03:16:36.765Z,1029.72
2016-12-18T03:17:40.214Z,1029.69
2016-12-18T03:18:43.668Z,1029.69
2016-12-18T03:19:47.122Z,1029.73
2016-12-18T03:20:50.571Z,1029.74
2016-12-18T03:21:54.015Z,1029.72
2016-12-18T03:22:57.477Z,1029.73
2016-12-18T03:24:00.926Z,1029.72
2016-12-18T03:25:04.371Z,1029.67
2016-12-18T03:26:07.837Z,1029.68
2016-12-18T03:27:11.285Z,1029.72
2016-12-18T03:28:14.733Z,1029.74
2016-12-18T03:29:18.200Z,1029.74
2016-12-18T03:30:21.649Z,1029.77
2016-12-18T03:31:25.095Z,1029.8
2016-12-18T03:32:28.570Z,1029.79
2016-12-18T03:33:32.012Z,1029.82
2016-12-18T03:34:35.457Z,1029.84
2016-12-18T03:35:38.924Z,1029.92
2016-12-18T03:36:42.372Z,1029.88
2016-12-18T03:37:45.818Z,1029.91
2016-12-18T03:38:49.286Z,1029.93
2016-12-18T03:39:52.734Z,1029.91
2016-12-18T03:40:56.180Z,1029.84
2016-12-18T03:41:59.648Z,1029.91
2016-12-18T03:43:03.094Z,1029.89
2016-12-18T03:44:06.541Z,1029.87
2016-12-18T03:45:10.009Z,1029.87
2016-12-18T03:46:13.457Z,1029.83
2016-12-18T03:47:16.906Z,1029.86
2016-12-18T03:48:20.357Z,1029.83
2016-12-18T03:49:23.798Z,1029.76
2016-12-18T03:50:27.261Z,1029.75
2016-12-18T03:51:30.716Z,1029.69
2016-12-18T03:52:34.160Z,1029.7
2016-12-18T03:53:37.618Z,1029.7
2016-12-18T03:54:41.070Z,1029.72
2016-12-18T03:55:44.521Z,1029.75
2016-12-18T03:56:47.974Z,1029.78
2016-12-18T03:57:51.428Z,1029.83
2016-12-18T03:58:54.881Z,1029.83
2016-12-18T03:59:58.335Z,1029.83
2016-12-18T04:01:01.788Z,1029.84
2016-12-18T04:02:05.242Z,1029.86
2016-12-18T04:03:08.696Z,1029.85
2016-12-18T04:04:12.150Z,1029.79
2016-12-18T04:05:15.596Z,1029.76
2016-12-18T04:06:19.058Z,1029.76
2016-12-18T04:07:22.507Z,1029.75
2016-12-18T04:08:25.949Z,1029.75
2016-12-18T04:09:29.412Z,1029.76
2016-12-18T04:10:32.861Z,1029.74
2016-12-18T04:11:36.307Z,1029.71
2016-12-18T04:12:39.775Z,1029.74
2016-12-18T04:13:43.224Z,1029.77
2016-12-18T04:14:46.668Z,1029.76
2016-12-18T04:15:50.136Z,1029.73
2016-12-18T04:16:53.585Z,1029.67
2016-12-18T04:17:57.035Z,1029.7
2016-12-18T04:19:00.498Z,1029.7
2016-12-18T04:20:03.947Z,1029.72
2016-12-18T04:21:07.395Z,1029.7
2016-12-18T04:22:10.860Z,1029.64
2016-12-18T04:23:14.309Z,1029.6
2016-12-18T04:24:17.756Z,1029.53
2016-12-18T04:25:21.220Z,1029.54
2016-12-18T04:26:24.671Z,1029.52
2016-12-18T04:27:28.116Z,1029.52
2016-12-18T04:28:31.584Z,1029.56
2016-12-18T04:29:35.034Z,1029.55
2016-12-18T04:30:38.478Z,1029.56
2016-12-18T04:31:41.945Z,1029.51
2016-12-18T04:32:45.393Z,1029.5
2016-12-18T04:33:48.841Z,1029.47
2016-12-18T04:34:52.305Z,1029.48
2016-12-18T04:35:55.754Z,1029.55
2016-12-18T04:36:59.199Z,1029.54
2016-12-18T04:38:02.668Z,1029.52
2016-12-18T04:39:06.117Z,1029.56
2016-12-18T04:40:09.565Z,1029.52
2016-12-18T04:41:13.036Z,1029.51
2016-12-18T04:42:16.488Z,1029.49
2016-12-18T04:43:19.934Z,1029.48
2016-12-18T04:44:23.400Z,1029.49
2016-12-18T04:45:26.851Z,1029.5
2016-12-18T04:46:30.297Z,1029.49
2016-12-18T04:47:33.760Z,1029.49
2016-12-18T04:48:37.212Z,1029.51
2016-12-18T04:49:40.659Z,1029.53
2016-12-18T04:50:44.120Z,1029.54
2016-12-18T04:51:47.575Z,1029.52
2016-12-18T04:52:51.030Z,1029.55
2016-12-18T04:53:54.483Z,1029.58
2016-12-18T04:54:57.930Z,1029.51
2016-12-18T04:56:01.373Z,1029.49
2016-12-18T04:57:04.839Z,1029.44
2016-12-18T04:58:08.287Z,1029.38
2016-12-18T04:59:11.734Z,1029.36
2016-12-18T05:00:15.201Z,1029.36
2016-12-18T05:01:18.649Z,1029.36
2016-12-18T05:02:22.097Z,1029.39
2016-12-18T05:03:25.562Z,1029.39
2016-12-18T05:04:29.013Z,1029.44
2016-12-18T05:05:32.459Z,1029.45
2016-12-18T05:06:35.924Z,1029.46
2016-12-18T05:07:39.373Z,1029.39
2016-12-18T05:08:42.818Z,1029.37
2016-12-18T05:09:46.286Z,1029.37
2016-12-18T05:10:49.733Z,1029.39
2016-12-18T05:11:53.180Z,1029.44
2016-12-18T05:12:56.647Z,1029.38
2016-12-18T05:14:00.096Z,1029.38
2016-12-18T05:15:03.544Z,1029.39
2016-12-18T05:16:07.009Z,1029.4
2016-12-18T05:17:10.457Z,1029.39
2016-12-18T05:18:13.903Z,1029.38
2016-12-18T05:19:17.371Z,1029.39
2016-12-18T05:20:20.820Z,1029.35
2016-12-18T05:21:24.267Z,1029.34
2016-12-18T05:22:27.733Z,1029.35
2016-12-18T05:23:31.183Z,1029.32
2016-12-18T05:24:34.631Z,1029.33
2016-12-18T05:25:38.095Z,1029.32
2016-12-18T05:26:41.542Z,1029.36
2016-12-18T05:27:44.990Z,1029.39
2016-12-18T05:28:48.456Z,1029.41
2016-12-18T05:29:51.906Z,1029.39
2016-12-18T05:30:55.352Z,1029.38
2016-12-18T05:31:58.818Z,1029.42
2016-12-18T05:33:02.269Z,1029.37
2016-12-18T05:34:05.713Z,1029.32
2016-12-18T05:35:09.180Z,1029.33
2016-12-18T05:36:12.628Z,1029.29
2016-12-18T05:37:16.077Z,1029.28
2016-12-18T05:38:19.541Z,1029.3
2016-12-18T05:39:22.989Z,1029.28
2016-12-18T05:40:26.439Z,1029.31
2016-12-18T05:41:29.903Z,1029.27
2016-12-18T05:42:33.352Z,1029.3
2016-12-18T05:43:36.798Z,1029.29
2016-12-18T05:44:40.264Z,1029.31
2016-12-18T05:45:43.713Z,1029.32
2016-12-18T05:46:47.158Z,1029.35
2016-12-18T05:47:50.627Z,1029.36
2016-12-18T05:48:54.079Z,1029.33
2016-12-18T05:49:57.522Z,1029.29
2016-12-18T05:51:00.988Z,1029.3
2016-12-18T05:52:04.437Z,1029.32
2016-12-18T05:53:07.887Z,1029.31
2016-12-18T05:54:11.350Z,1029.22
2016-12-18T05:55:14.798Z,1029.24
2016-12-18T05:57:46.507Z,1029.24
2016-12-18T05:58:49.954Z,1029.23
2016-12-18T05:59:53.399Z,1029.24
2016-12-18T06:00:56.862Z,1029.24
2016-12-18T06:02:00.307Z,1029.21
2016-12-18T06:03:03.745Z,1029.22
2016-12-18T06:04:07.203Z,1029.19
2016-12-18T06:05:10.643Z,1029.15
2016-12-18T06:06:14.095Z,1029.15
2016-12-18T06:07:17.544Z,1029.14
2016-12-18T06:08:20.987Z,1029.13
2016-12-18T06:09:24.451Z,1029.16
2016-12-18T06:10:27.899Z,1029.17
2016-12-18T06:11:31.344Z,1029.21
2016-12-18T06:12:34.789Z,1029.23
2016-12-18T06:13:38.240Z,1029.2
2016-12-18T06:14:41.694Z,1029.23
2016-12-18T06:15:45.142Z,1029.23
2016-12-18T06:16:48.581Z,1029.2
2016-12-18T06:17:52.049Z,1029.21
2016-12-18T06:18:55.496Z,1029.21
2016-12-18T06:19:58.943Z,1029.23
2016-12-18T06:21:02.411Z,1029.19
2016-12-18T06:22:05.859Z,1029.18
2016-12-18T06:23:09.305Z,1029.16
2016-12-18T06:24:12.773Z,1029.15
2016-12-18T06:25:16.221Z,1029.08
2016-12-18T06:26:19.666Z,1029.1
2016-12-18T06:27:23.118Z,1029.07
2016-12-18T06:28:26.562Z,1029.09
2016-12-18T06:29:30.013Z,1029.07
2016-12-18T06:30:33.466Z,1029.07
2016-12-18T06:31:36.909Z,1029.07
2016-12-18T06:32:40.369Z,1029.13
2016-12-18T06:33:43.816Z,1029.17
2016-12-18T06:34:47.263Z,1029.19
2016-12-18T06:35:50.730Z,1029.17
2016-12-18T06:36:54.176Z,1029.16
2016-12-18T06:37:57.624Z,1029.17
2016-12-18T06:39:01.092Z,1029.19
2016-12-18T06:40:04.539Z,1029.17
2016-12-18T06:41:07.987Z,1029.16
2016-12-18T06:42:11.454Z,1029.17
2016-12-18T06:43:14.901Z,1029.19
2016-12-18T06:44:18.349Z,1029.19
2016-12-18T06:45:21.816Z,1029.21
2016-12-18T06:46:25.262Z,1029.21
2016-12-18T06:47:28.709Z,1029.2
2016-12-18T06:48:32.176Z,1029.16
2016-12-18T06:49:35.623Z,1029.17
2016-12-18T06:50:39.071Z,1029.14
2016-12-18T06:51:42.545Z,1029.16
2016-12-18T06:52:45.992Z,1029.13
2016-12-18T06:53:49.439Z,1029.16
2016-12-18T06:54:52.899Z,1029.14
2016-12-18T06:55:56.349Z,1029.14
2016-12-18T06:56:59.794Z,1029.14
2016-12-18T06:58:03.261Z,1029.14
2016-12-18T06:59:06.710Z,1029.12
2016-12-18T07:00:10.157Z,1029.11
2016-12-18T07:01:13.623Z,1029.1
2016-12-18T07:02:17.071Z,1029.12
2016-12-18T07:03:21.496Z,1029.13
2016-12-18T07:04:24.948Z,1029.11
2016-12-18T07:05:28.401Z,1029.11
2016-12-18T07:06:31.854Z,1029.07
2016-12-18T07:07:35.301Z,1029.08
2016-12-18T07:08:38.762Z,1029.08
2016-12-18T07:09:42.212Z,1029.09
2016-12-18T07:10:45.656Z,1029.05
2016-12-18T07:11:49.116Z,1029.09
2016-12-18T07:12:52.564Z,1029.11
2016-12-18T07:13:56.011Z,1029.1
2016-12-18T07:14:59.464Z,1029.12
2016-12-18T07:16:02.922Z,1029.08
2016-12-18T07:17:06.376Z,1029.09
2016-12-18T07:18:09.841Z,1029.1
2016-12-18T07:19:13.288Z,1029.09
2016-12-18T07:20:16.743Z,1029.09
2016-12-18T07:21:20.203Z,1029.12
2016-12-18T07:22:23.649Z,1029.08
2016-12-18T07:23:27.098Z,1029.14
2016-12-18T07:24:30.563Z,1029.19
2016-12-18T07:25:34.013Z,1029.21
2016-12-18T07:26:37.458Z,1029.22
2016-12-18T07:27:40.926Z,1029.26
2016-12-18T07:28:44.373Z,1029.24
2016-12-18T07:29:47.821Z,1029.2
2016-12-18T07:30:51.286Z,1029.15
2016-12-18T07:31:54.736Z,1029.11
2016-12-18T07:32:58.182Z,1029.12
2016-12-18T07:34:01.635Z,1029.05
2016-12-18T07:35:05.076Z,1029.06
2016-12-18T07:36:08.533Z,1029.07
2016-12-18T07:37:11.981Z,1029.07
2016-12-18T07:38:15.428Z,1029.1
2016-12-18T07:39:18.890Z,1029.13
2016-12-18T07:40:22.337Z,1029.17
2016-12-18T07:41:25.779Z,1029.18
2016-12-18T07:42:29.246Z,1029.19
2016-12-18T07:43:32.695Z,1029.2
2016-12-18T07:44:36.140Z,1029.13
2016-12-18T07:45:39.607Z,1029.14
2016-12-18T07:46:43.056Z,1029.11
2016-12-18T07:47:46.502Z,1029.11
2016-12-18T07:48:49.968Z,1029.07
2016-12-18T07:49:53.417Z,1029.09
2016-12-18T07:50:56.862Z,1029.08
2016-12-18T07:52:00.330Z,1029.08
2016-12-18T07:53:03.778Z,1029.06
2016-12-18T07:54:07.224Z,1029.06
2016-12-18T07:55:10.691Z,1029.07
2016-12-18T07:56:14.137Z,1029.04
2016-12-18T07:57:17.587Z,1029.06
2016-12-18T07:58:21.053Z,1029.06
2016-12-18T07:59:24.501Z,1029.05
2016-12-18T08:00:27.947Z,1029.04
2016-12-18T08:01:31.414Z,1028.98
2016-12-18T08:02:34.863Z,1028.95
2016-12-18T08:03:38.307Z,1028.95
2016-12-18T08:04:41.761Z,1028.97
2016-12-18T08:05:45.202Z,1028.99
2016-12-18T08:06:48.655Z,1028.99
2016-12-18T08:07:52.108Z,1028.99
2016-12-18T08:08:55.552Z,1028.97
2016-12-18T08:09:59.010Z,1028.92
2016-12-18T08:11:02.459Z,1028.9
2016-12-18T08:12:05.904Z,1028.9
2016-12-18T08:13:09.371Z,1028.96
2016-12-18T08:14:12.820Z,1028.93
2016-12-18T08:15:16.266Z,1028.9
2016-12-18T08:16:19.733Z,1028.95
2016-12-18T08:17:23.179Z,1028.87
2016-12-18T08:18:26.628Z,1028.93
2016-12-18T08:19:30.095Z,1028.9
2016-12-18T08:20:33.545Z,1028.88
2016-12-18T08:21:36.988Z,1028.93
2016-12-18T08:22:40.457Z,1028.95
2016-12-18T08:23:43.905Z,1028.92
2016-12-18T08:24:47.351Z,1028.91
2016-12-18T08:25:50.817Z,1028.89
2016-12-18T08:26:54.264Z,1028.89
2016-12-18T08:27:57.713Z,1028.88
2016-12-18T08:29:01.164Z,1028.93
2016-12-18T08:30:04.607Z,1028.94
2016-12-18T08:31:08.060Z,1028.94
2016-12-18T08:32:11.508Z,1028.88
2016-12-18T08:33:14.949Z,1028.81
2016-12-18T08:34:18.416Z,1028.83
2016-12-18T08:35:21.868Z,1028.8
2016-12-18T08:36:25.311Z,1028.82
2016-12-18T08:37:28.778Z,1028.84
2016-12-18T08:38:32.225Z,1028.81
2016-12-18T08:39:35.673Z,1028.86
2016-12-18T08:40:39.139Z,1028.88
2016-12-18T08:41:42.586Z,1028.93
2016-12-18T08:42:46.033Z,1028.93
2016-12-18T08:43:49.486Z,1028.96
2016-12-18T08:44:52.930Z,1028.95
2016-12-18T08:45:56.386Z,1028.99
2016-12-18T08:46:59.840Z,1029
2016-12-18T08:48:03.290Z,1029.02
2016-12-18T08:49:06.743Z,1028.99
2016-12-18T08:50:10.196Z,1028.93
2016-12-18T08:51:13.642Z,1028.91
2016-12-18T08:52:17.105Z,1028.94
2016-12-18T08:53:20.557Z,1028.96
2016-12-18T08:54:24.005Z,1028.96
2016-12-18T08:55:27.468Z,1028.97
2016-12-18T08:56:30.917Z,1029.01
2016-12-18T08:57:34.367Z,1029
2016-12-18T08:58:37.829Z,1028.98
2016-12-18T08:59:41.282Z,1028.95
2016-12-18T09:00:44.730Z,1028.92
2016-12-18T09:01:48.192Z,1028.9
2016-12-18T09:02:51.643Z,1028.9
2016-12-18T09:03:55.087Z,1028.91
2016-12-18T09:04:58.546Z,1028.95
2016-12-18T09:06:01.996Z,1028.91
2016-12-18T09:07:05.441Z,1028.94
2016-12-18T09:08:08.907Z,1028.97
2016-12-18T09:09:12.357Z,1028.88
2016-12-18T09:10:15.804Z,1028.91
2016-12-18T09:11:19.270Z,1028.93
2016-12-18T09:12:22.720Z,1028.94
2016-12-18T09:13:26.163Z,1028.98
2016-12-18T09:14:29.616Z,1029.01
2016-12-18T09:15:33.059Z,1029
2016-12-18T09:16:36.512Z,1028.92
2016-12-18T09:17:39.965Z,1028.92
2016-12-18T09:18:43.411Z,1028.91
2016-12-18T09:19:46.874Z,1028.95
2016-12-18T09:20:50.333Z,1028.98
2016-12-18T09:21:53.772Z,1028.96
2016-12-18T09:22:57.236Z,1028.95
2016-12-18T09:24:00.687Z,1029
2016-12-18T09:25:04.131Z,1028.95
2016-12-18T09:26:07.591Z,1028.97
2016-12-18T09:27:11.040Z,1028.98
2016-12-18T09:28:14.486Z,1029.01
2016-12-18T09:29:17.952Z,1029.01
2016-12-18T09:30:21.401Z,1029.01
2016-12-18T09:31:24.848Z,1028.95
2016-12-18T09:32:28.300Z,1028.92
2016-12-18T09:33:31.743Z,1028.88
2016-12-18T09:34:35.201Z,1028.87
2016-12-18T09:35:38.652Z,1028.81
2016-12-18T09:36:42.103Z,1028.84
2016-12-18T09:37:45.557Z,1028.81
2016-12-18T09:38:49.004Z,1028.84
2016-12-18T09:39:52.448Z,1028.85
2016-12-18T09:40:55.912Z,1028.83
2016-12-18T09:41:59.363Z,1028.86
2016-12-18T09:43:02.814Z,1028.86
2016-12-18T09:44:06.274Z,1028.78
2016-12-18T09:45:09.722Z,1028.81
2016-12-18T09:46:13.169Z,1028.79
2016-12-18T09:47:16.636Z,1028.76
2016-12-18T09:48:20.083Z,1028.75
2016-12-18T09:49:23.533Z,1028.75
2016-12-18T09:50:26.998Z,1028.72
2016-12-18T09:51:30.448Z,1028.68
2016-12-18T09:52:33.893Z,1028.64
2016-12-18T09:53:37.354Z,1028.58
2016-12-18T09:54:40.806Z,1028.58
2016-12-18T09:55:44.254Z,1028.52
2016-12-18T09:56:47.722Z,1028.56
2016-12-18T09:57:51.171Z,1028.59
2016-12-18T09:58:54.615Z,1028.58
2016-12-18T09:59:58.069Z,1028.55
2016-12-18T10:01:01.512Z,1028.52
2016-12-18T10:02:04.964Z,1028.48
2016-12-18T10:03:08.417Z,1028.46
2016-12-18T10:04:11.862Z,1028.41
2016-12-18T10:05:15.326Z,1028.41
2016-12-18T10:06:18.779Z,1028.39
2016-12-18T10:07:22.220Z,1028.41
2016-12-18T10:08:25.681Z,1028.39
2016-12-18T10:09:29.130Z,1028.38
2016-12-18T10:10:32.577Z,1028.42
2016-12-18T10:11:36.043Z,1028.46
2016-12-18T10:12:39.492Z,1028.47
2016-12-18T10:13:42.937Z,1028.45
2016-12-18T10:14:46.403Z,1028.45
2016-12-18T10:15:49.854Z,1028.44
2016-12-18T10:16:53.300Z,1028.41
2016-12-18T10:17:56.767Z,1028.4
2016-12-18T10:19:00.213Z,1028.41
2016-12-18T10:20:03.666Z,1028.41
2016-12-18T10:21:07.129Z,1028.42
2016-12-18T10:22:10.576Z,1028.46
2016-12-18T10:23:14.022Z,1028.46
2016-12-18T10:24:17.490Z,1028.49
2016-12-18T10:25:20.938Z,1028.48
2016-12-18T10:26:24.390Z,1028.47
2016-12-18T10:27:27.852Z,1028.47
2016-12-18T10:28:31.298Z,1028.48
2016-12-18T10:29:34.748Z,1028.49
2016-12-18T10:30:38.204Z,1028.5
2016-12-18T10:31:41.641Z,1028.5
2016-12-18T10:32:45.093Z,1028.53
2016-12-18T10:33:48.543Z,1028.5
2016-12-18T10:34:51.988Z,1028.51
2016-12-18T10:35:55.449Z,1028.5
2016-12-18T10:36:58.903Z,1028.48
2016-12-18T10:38:02.344Z,1028.48
2016-12-18T10:39:05.811Z,1028.51
2016-12-18T10:40:09.260Z,1028.51
2016-12-18T10:41:12.705Z,1028.46
2016-12-18T10:42:16.173Z,1028.49
2016-12-18T10:43:19.620Z,1028.43
2016-12-18T10:44:23.066Z,1028.42
2016-12-18T10:45:26.535Z,1028.41
2016-12-18T10:46:29.984Z,1028.43
2016-12-18T10:47:33.428Z,1028.39
2016-12-18T10:48:36.896Z,1028.35
2016-12-18T10:49:40.347Z,1028.32
2016-12-18T10:50:43.790Z,1028.38
2016-12-18T10:51:47.243Z,1028.32
2016-12-18T10:52:50.685Z,1028.34
2016-12-18T10:53:54.143Z,1028.31
2016-12-18T10:54:57.583Z,1028.35
2016-12-18T10:56:01.030Z,1028.36
2016-12-18T10:57:04.492Z,1028.4
2016-12-18T10:58:07.942Z,1028.37
2016-12-18T10:59:11.387Z,1028.42
2016-12-18T11:00:14.854Z,1028.45
2016-12-18T11:01:18.301Z,1028.46
2016-12-18T11:02:21.752Z,1028.46
2016-12-18T11:03:25.214Z,1028.4
2016-12-18T11:04:28.665Z,1028.42
2016-12-18T11:05:32.109Z,1028.43
2016-12-18T11:06:35.561Z,1028.39
2016-12-18T11:07:39.004Z,1028.4
2016-12-18T11:08:42.462Z,1028.41
2016-12-18T11:09:45.915Z,1028.38
2016-12-18T11:10:49.365Z,1028.39
2016-12-18T11:11:52.818Z,1028.4
2016-12-18T11:12:56.267Z,1028.4
2016-12-18T11:13:59.711Z,1028.36
2016-12-18T11:15:03.174Z,1028.34
2016-12-18T11:16:06.625Z,1028.36
2016-12-18T11:17:10.070Z,1028.31
2016-12-18T11:18:13.538Z,1028.31
2016-12-18T11:19:16.986Z,1028.25
2016-12-18T11:20:20.431Z,1028.24
2016-12-18T11:21:23.896Z,1028.19
2016-12-18T11:22:27.343Z,1028.17
2016-12-18T11:23:30.792Z,1028.13
2016-12-18T11:24:34.245Z,1028.14
2016-12-18T11:25:37.694Z,1028.12
2016-12-18T11:26:41.143Z,1028.1
2016-12-18T11:27:44.597Z,1028.11
2016-12-18T11:28:48.047Z,1028.1
2016-12-18T11:29:51.500Z,1028.06
2016-12-18T11:30:54.948Z,1028.08
2016-12-18T11:31:58.394Z,1028.09
2016-12-18T11:33:01.854Z,1028.11
2016-12-18T11:34:05.307Z,1028.07
2016-12-18T11:35:08.749Z,1028.08
2016-12-18T11:36:12.217Z,1028.07
2016-12-18T11:37:15.665Z,1028.05
2016-12-18T11:38:19.111Z,1028.02
2016-12-18T11:39:22.577Z,1028.03
2016-12-18T11:40:26.026Z,1028.07
2016-12-18T11:41:29.474Z,1028.09
2016-12-18T11:42:32.940Z,1028.09
2016-12-18T11:43:36.389Z,1028.13
2016-12-18T11:44:39.833Z,1028.1
2016-12-18T11:45:43.301Z,1028.1
2016-12-18T11:46:46.750Z,1028.1
2016-12-18T11:47:50.196Z,1028.09
2016-12-18T11:48:53.664Z,1028.07
2016-12-18T11:49:57.112Z,1028.05
2016-12-18T11:51:00.571Z,1028.04
2016-12-18T11:52:04.010Z,1027.96
2016-12-18T11:53:07.453Z,1027.92
2016-12-18T11:54:10.911Z,1027.93
2016-12-18T11:55:14.360Z,1027.87
2016-12-18T11:56:17.805Z,1027.85
2016-12-18T11:57:21.266Z,1027.89
2016-12-18T11:58:24.713Z,1027.88
2016-12-18T11:59:28.154Z,1027.84
2016-12-18T12:00:31.623Z,1027.87
2016-12-18T12:01:35.072Z,1027.88
2016-12-18T12:02:38.516Z,1027.91
2016-12-18T12:03:41.985Z,1027.95
2016-12-18T12:04:45.434Z,1027.93
2016-12-18T12:05:48.883Z,1027.98
2016-12-18T12:06:52.346Z,1028.01
2016-12-18T12:07:55.793Z,1027.97
2016-12-18T12:08:59.241Z,1027.95
2016-12-18T12:10:02.708Z,1027.96
2016-12-18T12:11:06.158Z,1027.96
2016-12-18T12:12:09.606Z,1027.91
2016-12-18T12:13:13.070Z,1027.94
2016-12-18T12:14:16.517Z,1027.93
2016-12-18T12:15:19.969Z,1027.94
2016-12-18T12:16:23.431Z,1027.9
2016-12-18T12:17:26.880Z,1027.95
2016-12-18T12:18:30.329Z,1027.93
2016-12-18T12:19:33.793Z,1027.89
2016-12-18T12:20:37.242Z,1027.9
2016-12-18T12:21:40.691Z,1027.89
2016-12-18T12:22:44.154Z,1027.86
2016-12-18T12:23:47.603Z,1027.82
2016-12-18T12:24:51.052Z,1027.77
2016-12-18T12:25:54.517Z,1027.77
2016-12-18T12:26:57.968Z,1027.73
2016-12-18T12:28:01.412Z,1027.69
2016-12-18T12:29:04.879Z,1027.68
2016-12-18T12:30:08.328Z,1027.67
2016-12-18T12:31:11.774Z,1027.62
2016-12-18T12:32:15.241Z,1027.63
2016-12-18T12:33:18.690Z,1027.61
2016-12-18T12:34:22.136Z,1027.6
2016-12-18T12:35:25.586Z,1027.54
2016-12-18T12:36:29.031Z,1027.57
2016-12-18T12:37:32.487Z,1027.54
2016-12-18T12:38:35.939Z,1027.55
2016-12-18T12:39:39.391Z,1027.55
2016-12-18T12:40:42.852Z,1027.51
2016-12-18T12:41:47.200Z,1027.5
2016-12-18T12:43:16.429Z,1027.42
2016-12-18T12:44:19.866Z,1027.41
2016-12-18T12:45:23.317Z,1027.4
2016-12-18T12:46:26.765Z,1027.4
2016-12-18T12:47:30.207Z,1027.41
2016-12-18T12:48:33.674Z,1027.4
2016-12-18T12:49:37.122Z,1027.36
2016-12-18T12:50:40.569Z,1027.38
2016-12-18T12:51:44.026Z,1027.37
2016-12-18T12:52:47.463Z,1027.36
2016-12-18T12:53:50.921Z,1027.32